sensor_id;sensor_type;location;lat;lon;timestamp;P1;durP1;ratioP1;P2;durP2;ratioP2
9884;SDS011;4981;50.966;4.842;2023-02-27T00:00:00;3.67;;;1.60;;
9884;SDS011;4981;50.966;4.842;2023-02-27T00:02:29;6.60;;;1.63;;
9884;SDS011;4981;50.966;4.842;2023-02-27T00:04:57;2.73;;;1.40;;
9884;SDS011;4981;50.966;4.842;2023-02-27T00:07:25;4.47;;;1.13;;
9884;SDS011;4981;50.966;4.842;2023-02-27T00:09:52;6.37;;;2.07;;
9884;SDS011;4981;50.966;4.842;2023-02-27T00:12:20;4.20;;;1.67;;
9884;SDS011;4981;50.966;4.842;2023-02-27T00:14:48;3.07;;;1.20;;
9884;SDS011;4981;50.966;4.842;2023-02-27T00:17:15;4.20;;;1.37;;
9884;SDS011;4981;50.966;4.842;2023-02-27T00:19:44;6.40;;;2.07;;
9884;SDS011;4981;50.966;4.842;2023-02-27T00:22:12;5.00;;;1.90;;
9884;SDS011;4981;50.966;4.842;2023-02-27T00:24:39;4.27;;;2.00;;
9884;SDS011;4981;50.966;4.842;2023-02-27T00:27:07;2.47;;;1.20;;
9884;SDS011;4981;50.966;4.842;2023-02-27T00:29:34;4.00;;;1.87;;
9884;SDS011;4981;50.966;4.842;2023-02-27T00:32:02;6.63;;;1.70;;
9884;SDS011;4981;50.966;4.842;2023-02-27T00:34:30;7.30;;;2.53;;
9884;SDS011;4981;50.966;4.842;2023-02-27T00:36:59;8.63;;;4.23;;
9884;SDS011;4981;50.966;4.842;2023-02-27T00:39:27;2.73;;;1.70;;
9884;SDS011;4981;50.966;4.842;2023-02-27T00:41:54;4.57;;;1.30;;
9884;SDS011;4981;50.966;4.842;2023-02-27T00:44:22;5.27;;;1.30;;
9884;SDS011;4981;50.966;4.842;2023-02-27T00:46:49;4.47;;;1.20;;
9884;SDS011;4981;50.966;4.842;2023-02-27T00:49:17;4.00;;;1.33;;
9884;SDS011;4981;50.966;4.842;2023-02-27T00:51:45;5.37;;;1.20;;
9884;SDS011;4981;50.966;4.842;2023-02-27T00:54:14;4.93;;;1.37;;
9884;SDS011;4981;50.966;4.842;2023-02-27T00:56:42;6.03;;;1.50;;
9884;SDS011;4981;50.966;4.842;2023-02-27T00:59:09;5.17;;;2.00;;
9884;SDS011;4981;50.966;4.842;2023-02-27T01:01:37;2.40;;;1.33;;
9884;SDS011;4981;50.966;4.842;2023-02-27T01:04:05;4.07;;;1.70;;
9884;SDS011;4981;50.966;4.842;2023-02-27T01:06:32;3.47;;;1.47;;
9884;SDS011;4981;50.966;4.842;2023-02-27T01:09:00;3.90;;;1.30;;
9884;SDS011;4981;50.966;4.842;2023-02-27T01:11:29;6.03;;;1.20;;
9884;SDS011;4981;50.966;4.842;2023-02-27T01:13:57;5.30;;;1.30;;
9884;SDS011;4981;50.966;4.842;2023-02-27T01:16:25;5.97;;;1.53;;
9884;SDS011;4981;50.966;4.842;2023-02-27T01:18:52;9.37;;;1.60;;
9884;SDS011;4981;50.966;4.842;2023-02-27T01:21:20;8.40;;;1.70;;
9884;SDS011;4981;50.966;4.842;2023-02-27T01:23:48;3.70;;;1.20;;
9884;SDS011;4981;50.966;4.842;2023-02-27T01:26:15;5.90;;;1.50;;
9884;SDS011;4981;50.966;4.842;2023-02-27T01:28:45;4.20;;;1.30;;
9884;SDS011;4981;50.966;4.842;2023-02-27T01:31:12;4.23;;;1.40;;
9884;SDS011;4981;50.966;4.842;2023-02-27T01:33:40;3.73;;;1.50;;
9884;SDS011;4981;50.966;4.842;2023-02-27T01:36:08;1.90;;;1.10;;
9884;SDS011;4981;50.966;4.842;2023-02-27T01:38:36;7.37;;;1.70;;
9884;SDS011;4981;50.966;4.842;2023-02-27T01:41:03;4.83;;;1.30;;
9884;SDS011;4981;50.966;4.842;2023-02-27T01:43:31;2.90;;;1.30;;
9884;SDS011;4981;50.966;4.842;2023-02-27T01:46:01;3.43;;;1.20;;
9884;SDS011;4981;50.966;4.842;2023-02-27T01:48:30;1.87;;;1.10;;
9884;SDS011;4981;50.966;4.842;2023-02-27T01:50:59;2.57;;;1.00;;
9884;SDS011;4981;50.966;4.842;2023-02-27T01:53:28;3.47;;;1.33;;
9884;SDS011;4981;50.966;4.842;2023-02-27T01:55:57;3.97;;;1.23;;
9884;SDS011;4981;50.966;4.842;2023-02-27T01:58:25;4.77;;;1.73;;
9884;SDS011;4981;50.966;4.842;2023-02-27T02:00:53;4.90;;;1.53;;
9884;SDS011;4981;50.966;4.842;2023-02-27T02:03:24;3.63;;;1.53;;
9884;SDS011;4981;50.966;4.842;2023-02-27T02:05:54;7.00;;;1.67;;
9884;SDS011;4981;50.966;4.842;2023-02-27T02:08:22;5.83;;;1.50;;
9884;SDS011;4981;50.966;4.842;2023-02-27T02:10:51;5.03;;;1.30;;
9884;SDS011;4981;50.966;4.842;2023-02-27T02:13:20;4.20;;;1.67;;
9884;SDS011;4981;50.966;4.842;2023-02-27T02:15:50;5.67;;;1.80;;
9884;SDS011;4981;50.966;4.842;2023-02-27T02:18:20;4.63;;;1.43;;
9884;SDS011;4981;50.966;4.842;2023-02-27T02:26:25;7.53;;;1.93;;
9884;SDS011;4981;50.966;4.842;2023-02-27T02:28:59;8.23;;;1.93;;
9884;SDS011;4981;50.966;4.842;2023-02-27T02:37:13;5.27;;;1.47;;
9884;SDS011;4981;50.966;4.842;2023-02-27T02:39:54;4.87;;;1.63;;
9884;SDS011;4981;50.966;4.842;2023-02-27T02:42:27;6.77;;;1.57;;
9884;SDS011;4981;50.966;4.842;2023-02-27T02:45:02;3.53;;;1.40;;
9884;SDS011;4981;50.966;4.842;2023-02-27T02:47:34;3.30;;;1.30;;
9884;SDS011;4981;50.966;4.842;2023-02-27T02:50:04;2.10;;;0.90;;
9884;SDS011;4981;50.966;4.842;2023-02-27T02:52:38;5.97;;;1.80;;
9884;SDS011;4981;50.966;4.842;2023-02-27T02:55:11;3.60;;;1.27;;
9884;SDS011;4981;50.966;4.842;2023-02-27T02:57:41;5.73;;;1.57;;
9884;SDS011;4981;50.966;4.842;2023-02-27T03:00:11;3.97;;;1.57;;
9884;SDS011;4981;50.966;4.842;2023-02-27T03:02:42;4.43;;;1.67;;
9884;SDS011;4981;50.966;4.842;2023-02-27T03:05:12;4.43;;;1.33;;
9884;SDS011;4981;50.966;4.842;2023-02-27T03:07:42;6.20;;;1.60;;
9884;SDS011;4981;50.966;4.842;2023-02-27T03:10:13;4.17;;;1.50;;
9884;SDS011;4981;50.966;4.842;2023-02-27T03:12:43;5.17;;;1.40;;
9884;SDS011;4981;50.966;4.842;2023-02-27T03:15:12;6.40;;;1.73;;
9884;SDS011;4981;50.966;4.842;2023-02-27T03:17:42;6.60;;;2.00;;
9884;SDS011;4981;50.966;4.842;2023-02-27T03:20:14;6.33;;;1.80;;
9884;SDS011;4981;50.966;4.842;2023-02-27T03:22:43;4.07;;;1.50;;
9884;SDS011;4981;50.966;4.842;2023-02-27T03:25:14;3.60;;;1.77;;
9884;SDS011;4981;50.966;4.842;2023-02-27T03:27:42;3.80;;;1.60;;
9884;SDS011;4981;50.966;4.842;2023-02-27T03:30:11;4.83;;;1.70;;
9884;SDS011;4981;50.966;4.842;2023-02-27T03:32:43;3.83;;;1.97;;
9884;SDS011;4981;50.966;4.842;2023-02-27T03:35:13;3.50;;;1.50;;
9884;SDS011;4981;50.966;4.842;2023-02-27T03:37:44;5.53;;;1.53;;
9884;SDS011;4981;50.966;4.842;2023-02-27T03:40:22;4.33;;;1.53;;
9884;SDS011;4981;50.966;4.842;2023-02-27T03:42:52;6.70;;;1.40;;
9884;SDS011;4981;50.966;4.842;2023-02-27T03:45:27;6.67;;;2.00;;
9884;SDS011;4981;50.966;4.842;2023-02-27T03:47:59;7.93;;;1.80;;
9884;SDS011;4981;50.966;4.842;2023-02-27T03:50:26;4.70;;;1.57;;
9884;SDS011;4981;50.966;4.842;2023-02-27T03:52:54;4.33;;;1.70;;
9884;SDS011;4981;50.966;4.842;2023-02-27T03:55:24;5.90;;;1.80;;
9884;SDS011;4981;50.966;4.842;2023-02-27T03:57:53;2.57;;;1.63;;
9884;SDS011;4981;50.966;4.842;2023-02-27T04:00:22;4.70;;;2.03;;
9884;SDS011;4981;50.966;4.842;2023-02-27T04:02:50;4.60;;;1.87;;
9884;SDS011;4981;50.966;4.842;2023-02-27T04:05:19;7.37;;;1.70;;
9884;SDS011;4981;50.966;4.842;2023-02-27T04:07:50;3.33;;;1.40;;
9884;SDS011;4981;50.966;4.842;2023-02-27T04:15:53;5.50;;;1.80;;
9884;SDS011;4981;50.966;4.842;2023-02-27T04:18:28;2.70;;;1.80;;
9884;SDS011;4981;50.966;4.842;2023-02-27T04:21:02;6.77;;;2.07;;
9884;SDS011;4981;50.966;4.842;2023-02-27T04:23:33;6.47;;;1.83;;
9884;SDS011;4981;50.966;4.842;2023-02-27T04:26:07;7.63;;;1.97;;
9884;SDS011;4981;50.966;4.842;2023-02-27T04:28:39;5.33;;;1.57;;
9884;SDS011;4981;50.966;4.842;2023-02-27T04:31:10;6.37;;;1.80;;
9884;SDS011;4981;50.966;4.842;2023-02-27T04:33:41;4.67;;;1.90;;
9884;SDS011;4981;50.966;4.842;2023-02-27T04:36:12;4.97;;;2.07;;
9884;SDS011;4981;50.966;4.842;2023-02-27T04:38:43;3.27;;;1.83;;
9884;SDS011;4981;50.966;4.842;2023-02-27T04:41:12;6.10;;;2.07;;
9884;SDS011;4981;50.966;4.842;2023-02-27T04:43:41;4.53;;;1.60;;
9884;SDS011;4981;50.966;4.842;2023-02-27T04:46:11;2.97;;;1.80;;
9884;SDS011;4981;50.966;4.842;2023-02-27T04:48:42;4.50;;;1.73;;
9884;SDS011;4981;50.966;4.842;2023-02-27T04:51:11;3.77;;;1.73;;
9884;SDS011;4981;50.966;4.842;2023-02-27T04:53:41;5.10;;;1.80;;
9884;SDS011;4981;50.966;4.842;2023-02-27T04:56:11;8.57;;;2.53;;
9884;SDS011;4981;50.966;4.842;2023-02-27T04:58:41;3.13;;;1.47;;
9884;SDS011;4981;50.966;4.842;2023-02-27T05:01:12;7.67;;;2.07;;
9884;SDS011;4981;50.966;4.842;2023-02-27T05:03:43;10.47;;;2.47;;
9884;SDS011;4981;50.966;4.842;2023-02-27T05:06:13;5.90;;;1.70;;
9884;SDS011;4981;50.966;4.842;2023-02-27T05:08:42;8.40;;;1.93;;
9884;SDS011;4981;50.966;4.842;2023-02-27T05:11:12;5.20;;;1.70;;
9884;SDS011;4981;50.966;4.842;2023-02-27T05:13:42;5.83;;;2.03;;
9884;SDS011;4981;50.966;4.842;2023-02-27T05:16:15;4.73;;;2.07;;
9884;SDS011;4981;50.966;4.842;2023-02-27T05:18:44;4.47;;;1.90;;
9884;SDS011;4981;50.966;4.842;2023-02-27T05:21:14;5.47;;;2.33;;
9884;SDS011;4981;50.966;4.842;2023-02-27T05:23:50;5.07;;;1.87;;
9884;SDS011;4981;50.966;4.842;2023-02-27T05:26:23;7.10;;;1.73;;
9884;SDS011;4981;50.966;4.842;2023-02-27T05:28:54;4.90;;;2.30;;
9884;SDS011;4981;50.966;4.842;2023-02-27T05:31:27;4.93;;;2.10;;
9884;SDS011;4981;50.966;4.842;2023-02-27T05:33:56;6.93;;;2.07;;
9884;SDS011;4981;50.966;4.842;2023-02-27T05:36:27;6.33;;;2.30;;
9884;SDS011;4981;50.966;4.842;2023-02-27T05:38:58;4.43;;;2.10;;
9884;SDS011;4981;50.966;4.842;2023-02-27T05:41:27;5.77;;;1.97;;
9884;SDS011;4981;50.966;4.842;2023-02-27T05:43:58;3.30;;;1.80;;
9884;SDS011;4981;50.966;4.842;2023-02-27T05:46:29;10.50;;;6.03;;
9884;SDS011;4981;50.966;4.842;2023-02-27T05:48:58;8.33;;;5.40;;
9884;SDS011;4981;50.966;4.842;2023-02-27T05:51:28;5.67;;;2.73;;
9884;SDS011;4981;50.966;4.842;2023-02-27T05:53:59;8.30;;;2.33;;
9884;SDS011;4981;50.966;4.842;2023-02-27T05:56:28;5.00;;;3.00;;
9884;SDS011;4981;50.966;4.842;2023-02-27T05:58:58;5.07;;;2.30;;
9884;SDS011;4981;50.966;4.842;2023-02-27T06:01:28;4.97;;;2.23;;
9884;SDS011;4981;50.966;4.842;2023-02-27T06:03:57;7.87;;;2.60;;
9884;SDS011;4981;50.966;4.842;2023-02-27T06:06:24;6.53;;;2.90;;
9884;SDS011;4981;50.966;4.842;2023-02-27T06:08:52;5.10;;;3.10;;
9884;SDS011;4981;50.966;4.842;2023-02-27T06:11:20;7.33;;;3.17;;
9884;SDS011;4981;50.966;4.842;2023-02-27T06:13:47;4.43;;;2.50;;
9884;SDS011;4981;50.966;4.842;2023-02-27T06:16:15;4.50;;;2.17;;
9884;SDS011;4981;50.966;4.842;2023-02-27T06:18:44;6.77;;;2.43;;
9884;SDS011;4981;50.966;4.842;2023-02-27T06:21:12;5.43;;;3.50;;
9884;SDS011;4981;50.966;4.842;2023-02-27T06:23:40;9.80;;;4.00;;
9884;SDS011;4981;50.966;4.842;2023-02-27T06:26:07;4.93;;;2.60;;
9884;SDS011;4981;50.966;4.842;2023-02-27T06:28:38;5.83;;;2.90;;
9884;SDS011;4981;50.966;4.842;2023-02-27T06:31:06;5.53;;;2.90;;
9884;SDS011;4981;50.966;4.842;2023-02-27T06:33:34;7.30;;;3.40;;
9884;SDS011;4981;50.966;4.842;2023-02-27T06:36:03;6.20;;;2.87;;
9884;SDS011;4981;50.966;4.842;2023-02-27T06:38:31;7.93;;;2.80;;
9884;SDS011;4981;50.966;4.842;2023-02-27T06:40:59;5.73;;;2.90;;
9884;SDS011;4981;50.966;4.842;2023-02-27T06:43:28;2.97;;;2.27;;
9884;SDS011;4981;50.966;4.842;2023-02-27T06:45:58;7.13;;;2.70;;
9884;SDS011;4981;50.966;4.842;2023-02-27T06:48:26;6.33;;;2.90;;
9884;SDS011;4981;50.966;4.842;2023-02-27T06:50:54;6.03;;;2.60;;
9884;SDS011;4981;50.966;4.842;2023-02-27T06:53:24;6.40;;;2.93;;
9884;SDS011;4981;50.966;4.842;2023-02-27T06:55:51;4.33;;;3.00;;
9884;SDS011;4981;50.966;4.842;2023-02-27T06:58:19;5.43;;;3.10;;
9884;SDS011;4981;50.966;4.842;2023-02-27T07:00:48;11.17;;;4.50;;
9884;SDS011;4981;50.966;4.842;2023-02-27T07:03:16;10.87;;;5.73;;
9884;SDS011;4981;50.966;4.842;2023-02-27T07:05:43;9.10;;;5.03;;
9884;SDS011;4981;50.966;4.842;2023-02-27T07:08:11;12.20;;;5.97;;
9884;SDS011;4981;50.966;4.842;2023-02-27T07:10:43;9.77;;;3.57;;
9884;SDS011;4981;50.966;4.842;2023-02-27T07:13:13;5.63;;;2.77;;
9884;SDS011;4981;50.966;4.842;2023-02-27T07:15:41;6.07;;;3.43;;
9884;SDS011;4981;50.966;4.842;2023-02-27T07:18:08;8.97;;;3.60;;
9884;SDS011;4981;50.966;4.842;2023-02-27T07:20:36;6.77;;;3.83;;
9884;SDS011;4981;50.966;4.842;2023-02-27T07:23:04;5.03;;;2.07;;
9884;SDS011;4981;50.966;4.842;2023-02-27T07:25:31;6.47;;;2.93;;
9884;SDS011;4981;50.966;4.842;2023-02-27T07:28:00;8.00;;;2.90;;
9884;SDS011;4981;50.966;4.842;2023-02-27T07:30:29;6.70;;;3.50;;
9884;SDS011;4981;50.966;4.842;2023-02-27T07:32:56;8.03;;;3.23;;
9884;SDS011;4981;50.966;4.842;2023-02-27T07:35:24;6.13;;;3.13;;
9884;SDS011;4981;50.966;4.842;2023-02-27T07:37:52;6.53;;;2.90;;
9884;SDS011;4981;50.966;4.842;2023-02-27T07:40:19;8.73;;;2.77;;
9884;SDS011;4981;50.966;4.842;2023-02-27T07:42:47;4.80;;;2.97;;
9884;SDS011;4981;50.966;4.842;2023-02-27T07:45:17;5.03;;;3.20;;
9884;SDS011;4981;50.966;4.842;2023-02-27T07:47:44;7.23;;;2.83;;
9884;SDS011;4981;50.966;4.842;2023-02-27T07:50:12;5.57;;;2.87;;
9884;SDS011;4981;50.966;4.842;2023-02-27T07:52:40;7.80;;;3.20;;
9884;SDS011;4981;50.966;4.842;2023-02-27T07:55:09;6.33;;;3.00;;
9884;SDS011;4981;50.966;4.842;2023-02-27T07:57:37;1.93;;;1.70;;
9884;SDS011;4981;50.966;4.842;2023-02-27T08:00:06;3.43;;;1.63;;
9884;SDS011;4981;50.966;4.842;2023-02-27T08:02:35;3.17;;;2.43;;
9884;SDS011;4981;50.966;4.842;2023-02-27T08:05:03;4.50;;;2.40;;
9884;SDS011;4981;50.966;4.842;2023-02-27T08:07:31;6.07;;;2.93;;
9884;SDS011;4981;50.966;4.842;2023-02-27T08:10:00;6.47;;;3.07;;
9884;SDS011;4981;50.966;4.842;2023-02-27T08:12:28;5.67;;;3.07;;
9884;SDS011;4981;50.966;4.842;2023-02-27T08:14:56;8.27;;;3.03;;
9884;SDS011;4981;50.966;4.842;2023-02-27T08:17:23;5.20;;;3.47;;
9884;SDS011;4981;50.966;4.842;2023-02-27T08:19:52;2.73;;;2.20;;
9884;SDS011;4981;50.966;4.842;2023-02-27T08:22:20;6.97;;;3.30;;
9884;SDS011;4981;50.966;4.842;2023-02-27T08:24:47;6.07;;;3.03;;
9884;SDS011;4981;50.966;4.842;2023-02-27T08:27:15;5.30;;;2.70;;
9884;SDS011;4981;50.966;4.842;2023-02-27T08:29:43;5.13;;;3.07;;
9884;SDS011;4981;50.966;4.842;2023-02-27T08:32:11;3.43;;;2.10;;
9884;SDS011;4981;50.966;4.842;2023-02-27T08:34:38;5.90;;;3.17;;
9884;SDS011;4981;50.966;4.842;2023-02-27T08:37:07;4.63;;;3.03;;
9884;SDS011;4981;50.966;4.842;2023-02-27T08:39:35;5.90;;;2.40;;
9884;SDS011;4981;50.966;4.842;2023-02-27T08:42:03;5.63;;;3.23;;
9884;SDS011;4981;50.966;4.842;2023-02-27T08:44:31;8.23;;;3.00;;
9884;SDS011;4981;50.966;4.842;2023-02-27T08:46:58;6.77;;;3.50;;
9884;SDS011;4981;50.966;4.842;2023-02-27T08:49:26;5.17;;;2.63;;
9884;SDS011;4981;50.966;4.842;2023-02-27T08:51:54;4.67;;;2.50;;
9884;SDS011;4981;50.966;4.842;2023-02-27T08:54:23;5.60;;;3.17;;
9884;SDS011;4981;50.966;4.842;2023-02-27T08:56:51;6.63;;;3.87;;
9884;SDS011;4981;50.966;4.842;2023-02-27T08:59:18;7.00;;;3.47;;
9884;SDS011;4981;50.966;4.842;2023-02-27T09:01:46;7.20;;;2.87;;
9884;SDS011;4981;50.966;4.842;2023-02-27T09:04:13;3.20;;;2.40;;
9884;SDS011;4981;50.966;4.842;2023-02-27T09:06:41;4.50;;;2.90;;
9884;SDS011;4981;50.966;4.842;2023-02-27T09:09:09;3.30;;;2.03;;
9884;SDS011;4981;50.966;4.842;2023-02-27T09:11:38;4.50;;;2.77;;
9884;SDS011;4981;50.966;4.842;2023-02-27T09:14:06;6.20;;;2.90;;
9884;SDS011;4981;50.966;4.842;2023-02-27T09:16:33;2.67;;;2.33;;
9884;SDS011;4981;50.966;4.842;2023-02-27T09:19:01;5.00;;;1.77;;
9884;SDS011;4981;50.966;4.842;2023-02-27T09:21:29;5.20;;;3.53;;
9884;SDS011;4981;50.966;4.842;2023-02-27T09:23:56;4.57;;;2.63;;
9884;SDS011;4981;50.966;4.842;2023-02-27T09:26:24;3.23;;;1.50;;
9884;SDS011;4981;50.966;4.842;2023-02-27T09:28:53;3.33;;;2.40;;
9884;SDS011;4981;50.966;4.842;2023-02-27T09:31:21;2.43;;;2.10;;
9884;SDS011;4981;50.966;4.842;2023-02-27T09:33:48;5.37;;;2.53;;
9884;SDS011;4981;50.966;4.842;2023-02-27T09:36:16;3.40;;;1.60;;
9884;SDS011;4981;50.966;4.842;2023-02-27T09:38:44;5.00;;;2.00;;
9884;SDS011;4981;50.966;4.842;2023-02-27T09:44:05;4.10;;;3.70;;
9884;SDS011;4981;50.966;4.842;2023-02-27T09:46:40;4.07;;;2.23;;
9884;SDS011;4981;50.966;4.842;2023-02-27T09:49:08;2.93;;;1.60;;
9884;SDS011;4981;50.966;4.842;2023-02-27T09:51:38;5.57;;;1.70;;
9884;SDS011;4981;50.966;4.842;2023-02-27T09:54:05;3.37;;;1.90;;
9884;SDS011;4981;50.966;4.842;2023-02-27T09:56:34;2.93;;;1.40;;
9884;SDS011;4981;50.966;4.842;2023-02-27T09:59:03;2.60;;;1.37;;
9884;SDS011;4981;50.966;4.842;2023-02-27T10:01:34;2.57;;;1.60;;
9884;SDS011;4981;50.966;4.842;2023-02-27T10:04:06;2.00;;;1.40;;
9884;SDS011;4981;50.966;4.842;2023-02-27T10:06:40;2.70;;;1.20;;
9884;SDS011;4981;50.966;4.842;2023-02-27T10:09:20;2.53;;;1.40;;
9884;SDS011;4981;50.966;4.842;2023-02-27T10:11:55;2.03;;;1.20;;
9884;SDS011;4981;50.966;4.842;2023-02-27T10:14:26;1.60;;;1.13;;
9884;SDS011;4981;50.966;4.842;2023-02-27T10:16:58;1.20;;;1.10;;
9884;SDS011;4981;50.966;4.842;2023-02-27T10:19:29;5.37;;;1.83;;
9884;SDS011;4981;50.966;4.842;2023-02-27T10:21:58;2.20;;;1.10;;
9884;SDS011;4981;50.966;4.842;2023-02-27T10:24:27;3.53;;;1.60;;
9884;SDS011;4981;50.966;4.842;2023-02-27T10:26:57;4.33;;;2.00;;
9884;SDS011;4981;50.966;4.842;2023-02-27T10:29:27;3.80;;;1.30;;
9884;SDS011;4981;50.966;4.842;2023-02-27T10:31:59;3.23;;;1.60;;
9884;SDS011;4981;50.966;4.842;2023-02-27T10:34:27;4.20;;;1.87;;
9884;SDS011;4981;50.966;4.842;2023-02-27T10:36:56;2.60;;;1.10;;
9884;SDS011;4981;50.966;4.842;2023-02-27T10:39:25;2.27;;;1.33;;
9884;SDS011;4981;50.966;4.842;2023-02-27T10:41:53;1.70;;;1.00;;
9884;SDS011;4981;50.966;4.842;2023-02-27T10:44:25;1.97;;;1.00;;
9884;SDS011;4981;50.966;4.842;2023-02-27T10:46:53;2.93;;;1.17;;
9884;SDS011;4981;50.966;4.842;2023-02-27T10:49:22;2.80;;;1.40;;
9884;SDS011;4981;50.966;4.842;2023-02-27T10:52:03;2.83;;;1.10;;
9884;SDS011;4981;50.966;4.842;2023-02-27T10:54:31;1.73;;;1.17;;
9884;SDS011;4981;50.966;4.842;2023-02-27T10:56:59;3.10;;;1.37;;
9884;SDS011;4981;50.966;4.842;2023-02-27T10:59:28;4.30;;;1.90;;
9884;SDS011;4981;50.966;4.842;2023-02-27T11:01:58;4.10;;;1.90;;
9884;SDS011;4981;50.966;4.842;2023-02-27T11:04:32;1.90;;;1.40;;
9884;SDS011;4981;50.966;4.842;2023-02-27T11:07:00;3.50;;;1.53;;
9884;SDS011;4981;50.966;4.842;2023-02-27T11:09:29;4.27;;;1.50;;
9884;SDS011;4981;50.966;4.842;2023-02-27T11:12:08;3.40;;;1.90;;
9884;SDS011;4981;50.966;4.842;2023-02-27T11:14:46;3.33;;;1.87;;
9884;SDS011;4981;50.966;4.842;2023-02-27T11:17:19;2.93;;;1.83;;
9884;SDS011;4981;50.966;4.842;2023-02-27T11:19:48;2.63;;;1.37;;
9884;SDS011;4981;50.966;4.842;2023-02-27T11:22:17;1.70;;;1.30;;
9884;SDS011;4981;50.966;4.842;2023-02-27T11:24:45;3.57;;;1.47;;
9884;SDS011;4981;50.966;4.842;2023-02-27T11:27:17;2.73;;;1.43;;
9884;SDS011;4981;50.966;4.842;2023-02-27T11:29:54;1.03;;;0.83;;
9884;SDS011;4981;50.966;4.842;2023-02-27T11:32:22;1.60;;;1.00;;
9884;SDS011;4981;50.966;4.842;2023-02-27T11:34:52;2.93;;;1.60;;
9884;SDS011;4981;50.966;4.842;2023-02-27T11:37:21;3.20;;;1.37;;
9884;SDS011;4981;50.966;4.842;2023-02-27T11:39:50;2.57;;;0.60;;
9884;SDS011;4981;50.966;4.842;2023-02-27T11:42:21;5.10;;;1.40;;
9884;SDS011;4981;50.966;4.842;2023-02-27T11:44:52;1.43;;;0.70;;
9884;SDS011;4981;50.966;4.842;2023-02-27T11:47:22;4.40;;;1.83;;
9884;SDS011;4981;50.966;4.842;2023-02-27T11:49:59;0.93;;;0.63;;
9884;SDS011;4981;50.966;4.842;2023-02-27T11:52:29;1.33;;;0.80;;
9884;SDS011;4981;50.966;4.842;2023-02-27T11:55:00;2.13;;;1.30;;
9884;SDS011;4981;50.966;4.842;2023-02-27T11:57:30;3.27;;;1.50;;
9884;SDS011;4981;50.966;4.842;2023-02-27T12:00:00;2.77;;;1.10;;
9884;SDS011;4981;50.966;4.842;2023-02-27T12:02:41;1.20;;;0.80;;
9884;SDS011;4981;50.966;4.842;2023-02-27T12:05:13;2.17;;;1.03;;
9884;SDS011;4981;50.966;4.842;2023-02-27T12:07:43;4.03;;;1.47;;
9884;SDS011;4981;50.966;4.842;2023-02-27T12:10:13;1.73;;;0.80;;
9884;SDS011;4981;50.966;4.842;2023-02-27T12:12:43;2.07;;;0.90;;
9884;SDS011;4981;50.966;4.842;2023-02-27T12:15:16;2.03;;;0.90;;
9884;SDS011;4981;50.966;4.842;2023-02-27T12:17:46;2.43;;;1.30;;
9884;SDS011;4981;50.966;4.842;2023-02-27T12:20:24;1.40;;;0.70;;
9884;SDS011;4981;50.966;4.842;2023-02-27T12:22:52;2.60;;;1.30;;
9884;SDS011;4981;50.966;4.842;2023-02-27T12:25:33;1.80;;;0.80;;
9884;SDS011;4981;50.966;4.842;2023-02-27T12:28:05;2.47;;;0.93;;
9884;SDS011;4981;50.966;4.842;2023-02-27T12:30:35;1.20;;;1.00;;
9884;SDS011;4981;50.966;4.842;2023-02-27T12:33:08;2.30;;;1.30;;
9884;SDS011;4981;50.966;4.842;2023-02-27T12:35:41;5.63;;;1.43;;
9884;SDS011;4981;50.966;4.842;2023-02-27T12:38:12;4.30;;;2.43;;
9884;SDS011;4981;50.966;4.842;2023-02-27T12:40:42;4.37;;;1.20;;
9884;SDS011;4981;50.966;4.842;2023-02-27T12:43:16;2.00;;;0.93;;
9884;SDS011;4981;50.966;4.842;2023-02-27T12:45:54;1.40;;;1.00;;
9884;SDS011;4981;50.966;4.842;2023-02-27T12:48:32;2.27;;;0.73;;
9884;SDS011;4981;50.966;4.842;2023-02-27T12:51:07;1.00;;;0.60;;
9884;SDS011;4981;50.966;4.842;2023-02-27T12:53:49;3.10;;;1.50;;
9884;SDS011;4981;50.966;4.842;2023-02-27T12:56:19;1.73;;;0.97;;
9884;SDS011;4981;50.966;4.842;2023-02-27T12:58:49;0.93;;;0.90;;
9884;SDS011;4981;50.966;4.842;2023-02-27T13:01:25;1.00;;;0.70;;
9884;SDS011;4981;50.966;4.842;2023-02-27T13:03:58;2.27;;;0.80;;
9884;SDS011;4981;50.966;4.842;2023-02-27T13:06:28;2.00;;;1.10;;
9884;SDS011;4981;50.966;4.842;2023-02-27T13:09:04;1.03;;;0.60;;
9884;SDS011;4981;50.966;4.842;2023-02-27T13:11:41;0.70;;;0.70;;
9884;SDS011;4981;50.966;4.842;2023-02-27T13:14:13;2.13;;;0.93;;
9884;SDS011;4981;50.966;4.842;2023-02-27T13:16:43;1.57;;;0.90;;
9884;SDS011;4981;50.966;4.842;2023-02-27T13:19:12;3.33;;;1.20;;
9884;SDS011;4981;50.966;4.842;2023-02-27T13:21:44;2.57;;;1.57;;
9884;SDS011;4981;50.966;4.842;2023-02-27T13:24:21;1.90;;;1.50;;
9884;SDS011;4981;50.966;4.842;2023-02-27T13:26:52;2.43;;;1.00;;
9884;SDS011;4981;50.966;4.842;2023-02-27T13:29:22;1.43;;;0.80;;
9884;SDS011;4981;50.966;4.842;2023-02-27T13:31:51;2.60;;;1.53;;
9884;SDS011;4981;50.966;4.842;2023-02-27T13:34:21;0.73;;;0.53;;
9884;SDS011;4981;50.966;4.842;2023-02-27T13:36:56;1.90;;;1.43;;
9884;SDS011;4981;50.966;4.842;2023-02-27T13:39:38;1.17;;;0.77;;
9884;SDS011;4981;50.966;4.842;2023-02-27T13:44:54;5.60;;;2.10;;
9884;SDS011;4981;50.966;4.842;2023-02-27T13:53:01;2.57;;;1.47;;
9884;SDS011;4981;50.966;4.842;2023-02-27T13:55:34;3.43;;;1.50;;
9884;SDS011;4981;50.966;4.842;2023-02-27T13:58:04;1.40;;;1.30;;
9884;SDS011;4981;50.966;4.842;2023-02-27T14:00:32;1.90;;;1.37;;
9884;SDS011;4981;50.966;4.842;2023-02-27T14:03:03;1.33;;;1.03;;
9884;SDS011;4981;50.966;4.842;2023-02-27T14:05:34;2.13;;;1.53;;
9884;SDS011;4981;50.966;4.842;2023-02-27T14:08:05;1.57;;;1.07;;
9884;SDS011;4981;50.966;4.842;2023-02-27T14:10:35;2.27;;;1.10;;
9884;SDS011;4981;50.966;4.842;2023-02-27T14:13:03;2.33;;;0.90;;
9884;SDS011;4981;50.966;4.842;2023-02-27T14:15:47;2.30;;;1.00;;
9884;SDS011;4981;50.966;4.842;2023-02-27T14:21:02;3.93;;;0.90;;
9884;SDS011;4981;50.966;4.842;2023-02-27T14:23:31;1.17;;;0.80;;
9884;SDS011;4981;50.966;4.842;2023-02-27T14:26:01;1.70;;;0.90;;
9884;SDS011;4981;50.966;4.842;2023-02-27T14:28:33;0.83;;;0.80;;
9884;SDS011;4981;50.966;4.842;2023-02-27T14:31:01;1.30;;;0.80;;
9884;SDS011;4981;50.966;4.842;2023-02-27T14:33:32;2.97;;;1.00;;
9884;SDS011;4981;50.966;4.842;2023-02-27T14:36:01;1.13;;;0.80;;
9884;SDS011;4981;50.966;4.842;2023-02-27T14:38:29;3.23;;;1.50;;
9884;SDS011;4981;50.966;4.842;2023-02-27T14:43:43;1.63;;;1.17;;
9884;SDS011;4981;50.966;4.842;2023-02-27T14:46:21;6.07;;;1.17;;
9884;SDS011;4981;50.966;4.842;2023-02-27T14:48:51;1.87;;;1.00;;
9884;SDS011;4981;50.966;4.842;2023-02-27T14:51:19;1.70;;;1.03;;
9884;SDS011;4981;50.966;4.842;2023-02-27T14:53:57;1.73;;;0.90;;
9884;SDS011;4981;50.966;4.842;2023-02-27T14:56:25;1.93;;;1.00;;
9884;SDS011;4981;50.966;4.842;2023-02-27T14:58:54;2.40;;;1.00;;
9884;SDS011;4981;50.966;4.842;2023-02-27T15:01:23;2.20;;;1.00;;
9884;SDS011;4981;50.966;4.842;2023-02-27T15:03:52;0.73;;;0.53;;
9884;SDS011;4981;50.966;4.842;2023-02-27T15:06:20;4.60;;;1.23;;
9884;SDS011;4981;50.966;4.842;2023-02-27T15:08:49;4.00;;;1.30;;
9884;SDS011;4981;50.966;4.842;2023-02-27T15:11:17;3.97;;;1.00;;
9884;SDS011;4981;50.966;4.842;2023-02-27T15:13:46;2.27;;;0.90;;
9884;SDS011;4981;50.966;4.842;2023-02-27T15:16:25;1.80;;;1.10;;
9884;SDS011;4981;50.966;4.842;2023-02-27T15:18:54;2.20;;;1.07;;
9884;SDS011;4981;50.966;4.842;2023-02-27T15:21:23;1.03;;;0.60;;
9884;SDS011;4981;50.966;4.842;2023-02-27T15:23:54;2.60;;;0.70;;
9884;SDS011;4981;50.966;4.842;2023-02-27T15:26:22;1.40;;;0.70;;
9884;SDS011;4981;50.966;4.842;2023-02-27T15:28:50;3.73;;;1.90;;
9884;SDS011;4981;50.966;4.842;2023-02-27T15:31:19;3.97;;;1.30;;
9884;SDS011;4981;50.966;4.842;2023-02-27T15:33:49;1.97;;;0.90;;
9884;SDS011;4981;50.966;4.842;2023-02-27T15:36:18;3.23;;;1.20;;
9884;SDS011;4981;50.966;4.842;2023-02-27T15:38:46;2.63;;;1.13;;
9884;SDS011;4981;50.966;4.842;2023-02-27T15:41:28;1.40;;;0.70;;
9884;SDS011;4981;50.966;4.842;2023-02-27T15:43:56;1.27;;;0.70;;
9884;SDS011;4981;50.966;4.842;2023-02-27T15:46:24;2.30;;;1.20;;
9884;SDS011;4981;50.966;4.842;2023-02-27T15:48:53;1.43;;;0.87;;
9884;SDS011;4981;50.966;4.842;2023-02-27T15:51:21;4.53;;;1.37;;
9884;SDS011;4981;50.966;4.842;2023-02-27T15:53:52;2.57;;;1.40;;
9884;SDS011;4981;50.966;4.842;2023-02-27T15:56:21;3.93;;;1.70;;
9884;SDS011;4981;50.966;4.842;2023-02-27T15:58:50;2.10;;;1.13;;
9884;SDS011;4981;50.966;4.842;2023-02-27T16:01:21;1.97;;;1.20;;
9884;SDS011;4981;50.966;4.842;2023-02-27T16:03:50;1.47;;;0.87;;